sensor_id;sensor_type;location;lat;lon;timestamp;temperature;humidity
10885;DHT22;5495;53.252;10.390;2022-08-23T00:01:10;20.20;99.90
10885;DHT22;5495;53.252;10.390;2022-08-23T00:03:37;20.20;99.90
10885;DHT22;5495;53.252;10.390;2022-08-23T00:06:05;20.10;99.90
10885;DHT22;5495;53.252;10.390;2022-08-23T00:08:33;20.20;99.90
10885;DHT22;5495;53.252;10.390;2022-08-23T00:11:00;20.10;99.90
10885;DHT22;5495;53.252;10.390;2022-08-23T00:13:30;20.10;99.90
10885;DHT22;5495;53.252;10.390;2022-08-23T00:15:58;20.10;99.90
10885;DHT22;5495;53.252;10.390;2022-08-23T00:18:26;20.10;99.90
10885;DHT22;5495;53.252;10.390;2022-08-23T00:20:53;20.20;99.90
10885;DHT22;5495;53.252;10.390;2022-08-23T00:23:21;20.10;99.90
10885;DHT22;5495;53.252;10.390;2022-08-23T00:25:48;20.10;99.90
10885;DHT22;5495;53.252;10.390;2022-08-23T00:28:15;20.10;99.90
10885;DHT22;5495;53.252;10.390;2022-08-23T00:30:44;20.10;99.90
10885;DHT22;5495;53.252;10.390;2022-08-23T00:33:12;20.00;99.90
10885;DHT22;5495;53.252;10.390;2022-08-23T00:35:39;20.10;99.90
10885;DHT22;5495;53.252;10.390;2022-08-23T00:38:07;20.10;99.90
10885;DHT22;5495;53.252;10.390;2022-08-23T00:40:35;20.00;99.90
10885;DHT22;5495;53.252;10.390;2022-08-23T00:43:05;19.90;99.90
10885;DHT22;5495;53.252;10.390;2022-08-23T00:45:57;19.70;99.90
10885;DHT22;5495;53.252;10.390;2022-08-23T00:48:45;19.80;99.90
10885;DHT22;5495;53.252;10.390;2022-08-23T00:51:15;19.80;99.90
10885;DHT22;5495;53.252;10.390;2022-08-23T00:53:47;19.70;99.90
10885;DHT22;5495;53.252;10.390;2022-08-23T00:56:17;19.80;99.90
10885;DHT22;5495;53.252;10.390;2022-08-23T00:58:45;19.70;99.90
10885;DHT22;5495;53.252;10.390;2022-08-23T01:01:15;19.70;99.90
10885;DHT22;5495;53.252;10.390;2022-08-23T01:03:46;19.70;99.90
10885;DHT22;5495;53.252;10.390;2022-08-23T01:06:20;19.70;99.90
10885;DHT22;5495;53.252;10.390;2022-08-23T01:08:52;19.70;99.90
10885;DHT22;5495;53.252;10.390;2022-08-23T01:11:25;19.70;99.90
10885;DHT22;5495;53.252;10.390;2022-08-23T01:14:02;19.70;99.90
10885;DHT22;5495;53.252;10.390;2022-08-23T01:16:40;19.70;99.90
10885;DHT22;5495;53.252;10.390;2022-08-23T01:19:15;19.70;99.90
10885;DHT22;5495;53.252;10.390;2022-08-23T01:21:48;19.70;99.90
10885;DHT22;5495;53.252;10.390;2022-08-23T01:24:19;19.70;99.90
10885;DHT22;5495;53.252;10.390;2022-08-23T01:26:47;19.70;99.90
10885;DHT22;5495;53.252;10.390;2022-08-23T01:29:15;19.70;99.90
10885;DHT22;5495;53.252;10.390;2022-08-23T01:31:43;19.60;99.90
10885;DHT22;5495;53.252;10.390;2022-08-23T01:34:11;19.60;99.90
10885;DHT22;5495;53.252;10.390;2022-08-23T01:36:41;19.50;99.90
10885;DHT22;5495;53.252;10.390;2022-08-23T01:39:09;19.40;99.90
10885;DHT22;5495;53.252;10.390;2022-08-23T01:41:39;19.40;99.90
10885;DHT22;5495;53.252;10.390;2022-08-23T01:44:07;19.40;99.90
10885;DHT22;5495;53.252;10.390;2022-08-23T01:46:35;19.30;99.90
10885;DHT22;5495;53.252;10.390;2022-08-23T01:49:03;19.30;99.90
10885;DHT22;5495;53.252;10.390;2022-08-23T01:51:31;19.20;99.90
10885;DHT22;5495;53.252;10.390;2022-08-23T01:53:59;19.20;99.90
10885;DHT22;5495;53.252;10.390;2022-08-23T01:56:26;19.10;99.90
10885;DHT22;5495;53.252;10.390;2022-08-23T01:58:56;19.10;99.90
10885;DHT22;5495;53.252;10.390;2022-08-23T02:01:23;19.10;99.90
10885;DHT22;5495;53.252;10.390;2022-08-23T02:03:51;19.10;99.90
10885;DHT22;5495;53.252;10.390;2022-08-23T02:06:19;19.10;99.90
10885;DHT22;5495;53.252;10.390;2022-08-23T02:08:46;19.10;99.90
10885;DHT22;5495;53.252;10.390;2022-08-23T02:11:32;19.10;99.90
10885;DHT22;5495;53.252;10.390;2022-08-23T02:14:04;19.10;99.90
10885;DHT22;5495;53.252;10.390;2022-08-23T02:16:34;19.10;99.90
10885;DHT22;5495;53.252;10.390;2022-08-23T02:19:04;19.10;99.90
10885;DHT22;5495;53.252;10.390;2022-08-23T02:21:33;19.10;99.90
10885;DHT22;5495;53.252;10.390;2022-08-23T02:24:03;19.10;99.90
10885;DHT22;5495;53.252;10.390;2022-08-23T02:26:31;19.10;99.90
10885;DHT22;5495;53.252;10.390;2022-08-23T02:29:00;19.20;99.90
10885;DHT22;5495;53.252;10.390;2022-08-23T02:31:27;19.20;99.90
10885;DHT22;5495;53.252;10.390;2022-08-23T02:33:54;19.10;99.90
10885;DHT22;5495;53.252;10.390;2022-08-23T02:36:22;19.00;99.90
10885;DHT22;5495;53.252;10.390;2022-08-23T02:38:49;19.00;99.90
10885;DHT22;5495;53.252;10.390;2022-08-23T02:41:17;19.00;99.90
10885;DHT22;5495;53.252;10.390;2022-08-23T02:43:44;19.10;99.90
10885;DHT22;5495;53.252;10.390;2022-08-23T02:46:13;19.10;99.90
10885;DHT22;5495;53.252;10.390;2022-08-23T02:48:41;19.10;99.90
10885;DHT22;5495;53.252;10.390;2022-08-23T02:51:08;19.10;99.90
10885;DHT22;5495;53.252;10.390;2022-08-23T02:53:36;19.10;99.90
10885;DHT22;5495;53.252;10.390;2022-08-23T02:56:04;19.20;99.90
10885;DHT22;5495;53.252;10.390;2022-08-23T02:58:31;19.10;99.90
10885;DHT22;5495;53.252;10.390;2022-08-23T03:00:59;19.20;99.90
10885;DHT22;5495;53.252;10.390;2022-08-23T03:03:28;19.10;99.90
10885;DHT22;5495;53.252;10.390;2022-08-23T03:05:55;19.20;99.90
10885;DHT22;5495;53.252;10.390;2022-08-23T03:08:23;19.20;99.90
10885;DHT22;5495;53.252;10.390;2022-08-23T03:10:51;19.10;99.90
10885;DHT22;5495;53.252;10.390;2022-08-23T03:13:19;19.10;99.90
10885;DHT22;5495;53.252;10.390;2022-08-23T03:15:46;19.10;99.90
10885;DHT22;5495;53.252;10.390;2022-08-23T03:18:14;19.10;99.90
10885;DHT22;5495;53.252;10.390;2022-08-23T03:20:43;19.10;99.90
10885;DHT22;5495;53.252;10.390;2022-08-23T03:23:11;19.10;99.90
10885;DHT22;5495;53.252;10.390;2022-08-23T03:25:38;19.10;99.90
10885;DHT22;5495;53.252;10.390;2022-08-23T03:28:06;18.90;99.90
10885;DHT22;5495;53.252;10.390;2022-08-23T03:30:34;18.90;99.90
10885;DHT22;5495;53.252;10.390;2022-08-23T03:33:01;18.90;99.90
10885;DHT22;5495;53.252;10.390;2022-08-23T03:35:29;18.90;99.90
10885;DHT22;5495;53.252;10.390;2022-08-23T03:37:57;18.90;99.90
10885;DHT22;5495;53.252;10.390;2022-08-23T03:40:25;19.00;99.90
10885;DHT22;5495;53.252;10.390;2022-08-23T03:42:52;18.90;99.90
10885;DHT22;5495;53.252;10.390;2022-08-23T03:45:19;18.90;99.90
10885;DHT22;5495;53.252;10.390;2022-08-23T03:47:47;18.80;99.90
10885;DHT22;5495;53.252;10.390;2022-08-23T03:50:14;18.80;99.90
10885;DHT22;5495;53.252;10.390;2022-08-23T03:52:41;18.70;99.90
10885;DHT22;5495;53.252;10.390;2022-08-23T03:55:10;18.70;99.90
10885;DHT22;5495;53.252;10.390;2022-08-23T03:57:37;18.80;99.90
10885;DHT22;5495;53.252;10.390;2022-08-23T04:00:07;18.80;99.90
10885;DHT22;5495;53.252;10.390;2022-08-23T04:02:35;18.80;99.90
10885;DHT22;5495;53.252;10.390;2022-08-23T04:05:03;18.70;99.90
10885;DHT22;5495;53.252;10.390;2022-08-23T04:07:31;18.80;99.90
10885;DHT22;5495;53.252;10.390;2022-08-23T04:09:58;18.70;99.90
10885;DHT22;5495;53.252;10.390;2022-08-23T04:12:27;18.70;99.90
10885;DHT22;5495;53.252;10.390;2022-08-23T04:14:54;18.60;99.90
10885;DHT22;5495;53.252;10.390;2022-08-23T04:17:22;18.60;99.90
10885;DHT22;5495;53.252;10.390;2022-08-23T04:19:51;18.60;99.90
10885;DHT22;5495;53.252;10.390;2022-08-23T04:22:19;18.60;99.90
10885;DHT22;5495;53.252;10.390;2022-08-23T04:24:47;18.60;99.90
10885;DHT22;5495;53.252;10.390;2022-08-23T04:27:14;18.50;99.90
10885;DHT22;5495;53.252;10.390;2022-08-23T04:29:43;18.50;99.90
10885;DHT22;5495;53.252;10.390;2022-08-23T04:32:10;18.50;99.90
10885;DHT22;5495;53.252;10.390;2022-08-23T04:34:40;18.50;99.90
10885;DHT22;5495;53.252;10.390;2022-08-23T04:37:08;18.50;99.90
10885;DHT22;5495;53.252;10.390;2022-08-23T04:39:37;18.50;99.90
10885;DHT22;5495;53.252;10.390;2022-08-23T04:42:18;18.50;99.90
10885;DHT22;5495;53.252;10.390;2022-08-23T04:44:47;18.50;99.90
10885;DHT22;5495;53.252;10.390;2022-08-23T04:47:14;18.50;99.90
10885;DHT22;5495;53.252;10.390;2022-08-23T04:49:42;18.50;99.90
10885;DHT22;5495;53.252;10.390;2022-08-23T04:52:11;18.50;99.90
10885;DHT22;5495;53.252;10.390;2022-08-23T04:54:39;18.50;99.90
10885;DHT22;5495;53.252;10.390;2022-08-23T04:57:07;18.60;99.90
10885;DHT22;5495;53.252;10.390;2022-08-23T04:59:34;18.60;99.90
10885;DHT22;5495;53.252;10.390;2022-08-23T05:02:04;18.70;99.90
10885;DHT22;5495;53.252;10.390;2022-08-23T05:04:32;18.70;99.90
10885;DHT22;5495;53.252;10.390;2022-08-23T05:07:00;18.60;99.90
10885;DHT22;5495;53.252;10.390;2022-08-23T05:09:27;18.50;99.90
10885;DHT22;5495;53.252;10.390;2022-08-23T05:11:54;18.50;99.90
10885;DHT22;5495;53.252;10.390;2022-08-23T05:14:22;18.60;99.90
10885;DHT22;5495;53.252;10.390;2022-08-23T05:16:50;18.50;99.90
10885;DHT22;5495;53.252;10.390;2022-08-23T05:19:20;18.70;99.90
10885;DHT22;5495;53.252;10.390;2022-08-23T05:21:47;18.80;99.90
10885;DHT22;5495;53.252;10.390;2022-08-23T05:24:15;18.60;99.90
10885;DHT22;5495;53.252;10.390;2022-08-23T05:26:42;18.50;99.90
10885;DHT22;5495;53.252;10.390;2022-08-23T05:29:10;18.60;99.90
10885;DHT22;5495;53.252;10.390;2022-08-23T05:31:37;18.70;99.90
10885;DHT22;5495;53.252;10.390;2022-08-23T05:34:05;18.80;99.90
10885;DHT22;5495;53.252;10.390;2022-08-23T05:36:35;18.70;99.90
10885;DHT22;5495;53.252;10.390;2022-08-23T05:39:02;18.60;99.90
10885;DHT22;5495;53.252;10.390;2022-08-23T05:41:30;18.60;99.90
10885;DHT22;5495;53.252;10.390;2022-08-23T05:43:57;18.60;99.90
10885;DHT22;5495;53.252;10.390;2022-08-23T05:46:25;18.70;99.90
10885;DHT22;5495;53.252;10.390;2022-08-23T05:48:53;18.70;99.90
10885;DHT22;5495;53.252;10.390;2022-08-23T05:51:23;18.80;99.90
10885;DHT22;5495;53.252;10.390;2022-08-23T05:53:54;18.80;99.90
10885;DHT22;5495;53.252;10.390;2022-08-23T05:56:24;18.90;99.90
10885;DHT22;5495;53.252;10.390;2022-08-23T05:58:54;18.90;99.90
10885;DHT22;5495;53.252;10.390;2022-08-23T06:01:23;18.90;99.90
10885;DHT22;5495;53.252;10.390;2022-08-23T06:03:51;18.80;99.90
10885;DHT22;5495;53.252;10.390;2022-08-23T06:06:19;18.80;99.90
10885;DHT22;5495;53.252;10.390;2022-08-23T06:08:47;18.80;99.90
10885;DHT22;5495;53.252;10.390;2022-08-23T06:11:19;18.90;99.90
10885;DHT22;5495;53.252;10.390;2022-08-23T06:13:50;19.00;99.90
10885;DHT22;5495;53.252;10.390;2022-08-23T06:16:21;19.00;99.90
10885;DHT22;5495;53.252;10.390;2022-08-23T06:18:50;19.10;99.90
10885;DHT22;5495;53.252;10.390;2022-08-23T06:21:17;19.10;99.90
10885;DHT22;5495;53.252;10.390;2022-08-23T06:23:45;19.20;99.90
10885;DHT22;5495;53.252;10.390;2022-08-23T06:26:18;19.30;99.90
10885;DHT22;5495;53.252;10.390;2022-08-23T06:28:50;19.30;99.90
10885;DHT22;5495;53.252;10.390;2022-08-23T06:31:18;19.20;99.90
10885;DHT22;5495;53.252;10.390;2022-08-23T06:34:08;19.30;99.90
10885;DHT22;5495;53.252;10.390;2022-08-23T06:36:36;19.40;99.90
10885;DHT22;5495;53.252;10.390;2022-08-23T06:39:04;19.50;99.90
10885;DHT22;5495;53.252;10.390;2022-08-23T06:41:33;19.50;99.90
10885;DHT22;5495;53.252;10.390;2022-08-23T06:44:01;19.60;99.90
10885;DHT22;5495;53.252;10.390;2022-08-23T06:46:30;19.70;99.90
10885;DHT22;5495;53.252;10.390;2022-08-23T06:48:58;19.70;99.90
10885;DHT22;5495;53.252;10.390;2022-08-23T06:51:27;19.70;99.90
10885;DHT22;5495;53.252;10.390;2022-08-23T06:53:57;19.80;99.90
10885;DHT22;5495;53.252;10.390;2022-08-23T06:56:27;19.80;99.90
10885;DHT22;5495;53.252;10.390;2022-08-23T06:58:56;19.90;99.90
10885;DHT22;5495;53.252;10.390;2022-08-23T07:01:28;19.90;99.90
10885;DHT22;5495;53.252;10.390;2022-08-23T07:03:58;19.90;99.90
10885;DHT22;5495;53.252;10.390;2022-08-23T07:06:27;19.90;99.90
10885;DHT22;5495;53.252;10.390;2022-08-23T07:08:55;20.00;99.90
10885;DHT22;5495;53.252;10.390;2022-08-23T07:11:23;20.10;99.90
10885;DHT22;5495;53.252;10.390;2022-08-23T07:13:51;20.10;99.90
10885;DHT22;5495;53.252;10.390;2022-08-23T07:16:21;20.10;99.90
10885;DHT22;5495;53.252;10.390;2022-08-23T07:18:48;20.10;99.90
10885;DHT22;5495;53.252;10.390;2022-08-23T07:21:16;20.20;99.90
10885;DHT22;5495;53.252;10.390;2022-08-23T07:23:44;20.20;99.90
10885;DHT22;5495;53.252;10.390;2022-08-23T07:26:13;20.20;99.90
10885;DHT22;5495;53.252;10.390;2022-08-23T07:28:42;20.30;99.90
10885;DHT22;5495;53.252;10.390;2022-08-23T07:31:12;20.30;99.90
10885;DHT22;5495;53.252;10.390;2022-08-23T07:33:42;20.40;99.90
10885;DHT22;5495;53.252;10.390;2022-08-23T07:36:13;20.50;99.90
10885;DHT22;5495;53.252;10.390;2022-08-23T07:38:41;20.50;99.90
10885;DHT22;5495;53.252;10.390;2022-08-23T07:41:09;20.60;99.90
10885;DHT22;5495;53.252;10.390;2022-08-23T07:43:37;20.60;99.90
10885;DHT22;5495;53.252;10.390;2022-08-23T07:46:05;20.70;99.90
10885;DHT22;5495;53.252;10.390;2022-08-23T07:48:33;20.80;99.90
10885;DHT22;5495;53.252;10.390;2022-08-23T07:51:04;20.80;99.90
10885;DHT22;5495;53.252;10.390;2022-08-23T07:53:32;20.80;99.90
10885;DHT22;5495;53.252;10.390;2022-08-23T07:56:04;20.90;99.90
10885;DHT22;5495;53.252;10.390;2022-08-23T07:58:32;20.90;99.90
10885;DHT22;5495;53.252;10.390;2022-08-23T08:01:08;21.00;99.90
10885;DHT22;5495;53.252;10.390;2022-08-23T08:03:36;21.10;99.90
10885;DHT22;5495;53.252;10.390;2022-08-23T08:06:11;21.10;99.90
10885;DHT22;5495;53.252;10.390;2022-08-23T08:08:39;21.20;99.90
10885;DHT22;5495;53.252;10.390;2022-08-23T08:11:08;21.30;99.90
10885;DHT22;5495;53.252;10.390;2022-08-23T08:13:37;21.30;99.90
10885;DHT22;5495;53.252;10.390;2022-08-23T08:16:06;21.40;99.90
10885;DHT22;5495;53.252;10.390;2022-08-23T08:18:34;21.50;99.90
10885;DHT22;5495;53.252;10.390;2022-08-23T08:21:03;21.50;99.90
10885;DHT22;5495;53.252;10.390;2022-08-23T08:23:32;21.70;99.90
10885;DHT22;5495;53.252;10.390;2022-08-23T08:26:01;21.70;99.90
10885;DHT22;5495;53.252;10.390;2022-08-23T08:28:32;21.80;99.90
10885;DHT22;5495;53.252;10.390;2022-08-23T08:31:00;21.90;99.90
10885;DHT22;5495;53.252;10.390;2022-08-23T08:33:29;21.90;99.90
10885;DHT22;5495;53.252;10.390;2022-08-23T08:35:56;21.90;99.90
10885;DHT22;5495;53.252;10.390;2022-08-23T08:38:24;21.90;99.90
10885;DHT22;5495;53.252;10.390;2022-08-23T08:41:04;22.00;99.90
10885;DHT22;5495;53.252;10.390;2022-08-23T08:43:45;22.10;99.90
10885;DHT22;5495;53.252;10.390;2022-08-23T08:46:21;22.20;99.90
10885;DHT22;5495;53.252;10.390;2022-08-23T08:48:56;22.20;99.90
10885;DHT22;5495;53.252;10.390;2022-08-23T08:51:35;22.20;99.90
10885;DHT22;5495;53.252;10.390;2022-08-23T08:54:08;22.30;99.90
10885;DHT22;5495;53.252;10.390;2022-08-23T08:56:40;22.40;99.90
10885;DHT22;5495;53.252;10.390;2022-08-23T08:59:13;22.40;99.90
10885;DHT22;5495;53.252;10.390;2022-08-23T09:01:45;22.50;99.90
10885;DHT22;5495;53.252;10.390;2022-08-23T09:04:13;22.50;99.90
10885;DHT22;5495;53.252;10.390;2022-08-23T09:06:49;22.50;99.90
10885;DHT22;5495;53.252;10.390;2022-08-23T09:09:44;22.60;99.90
10885;DHT22;5495;53.252;10.390;2022-08-23T09:12:25;22.70;99.90
10885;DHT22;5495;53.252;10.390;2022-08-23T09:15:15;22.80;99.90
10885;DHT22;5495;53.252;10.390;2022-08-23T09:17:50;22.80;99.90
10885;DHT22;5495;53.252;10.390;2022-08-23T09:20:24;22.80;99.90
10885;DHT22;5495;53.252;10.390;2022-08-23T09:23:02;22.80;99.90
10885;DHT22;5495;53.252;10.390;2022-08-23T09:25:32;22.90;99.90
10885;DHT22;5495;53.252;10.390;2022-08-23T09:28:02;23.00;99.90
10885;DHT22;5495;53.252;10.390;2022-08-23T09:30:51;23.00;99.90
10885;DHT22;5495;53.252;10.390;2022-08-23T09:33:21;23.10;99.90
10885;DHT22;5495;53.252;10.390;2022-08-23T09:36:04;23.10;99.90
10885;DHT22;5495;53.252;10.390;2022-08-23T09:38:32;23.20;99.90
10885;DHT22;5495;53.252;10.390;2022-08-23T09:40:59;23.20;99.90
10885;DHT22;5495;53.252;10.390;2022-08-23T09:43:42;23.20;99.90
10885;DHT22;5495;53.252;10.390;2022-08-23T09:46:24;23.20;99.90
10885;DHT22;5495;53.252;10.390;2022-08-23T09:48:52;23.30;99.90
10885;DHT22;5495;53.252;10.390;2022-08-23T09:51:25;23.40;99.90
10885;DHT22;5495;53.252;10.390;2022-08-23T09:54:05;23.40;99.90
10885;DHT22;5495;53.252;10.390;2022-08-23T09:56:36;23.40;99.90
10885;DHT22;5495;53.252;10.390;2022-08-23T09:59:30;23.50;99.90
10885;DHT22;5495;53.252;10.390;2022-08-23T10:02:00;23.60;99.90
10885;DHT22;5495;53.252;10.390;2022-08-23T10:04:38;23.70;99.90
10885;DHT22;5495;53.252;10.390;2022-08-23T10:07:23;23.80;99.90
10885;DHT22;5495;53.252;10.390;2022-08-23T10:09:52;23.80;99.90
10885;DHT22;5495;53.252;10.390;2022-08-23T10:12:20;23.80;99.90
10885;DHT22;5495;53.252;10.390;2022-08-23T10:14:50;23.90;99.70
10885;DHT22;5495;53.252;10.390;2022-08-23T10:17:26;23.90;98.90
10885;DHT22;5495;53.252;10.390;2022-08-23T10:20:09;24.00;99.00
10885;DHT22;5495;53.252;10.390;2022-08-23T10:22:45;24.10;99.50
10885;DHT22;5495;53.252;10.390;2022-08-23T10:25:20;24.10;99.10
10885;DHT22;5495;53.252;10.390;2022-08-23T10:28:07;24.10;98.60
10885;DHT22;5495;53.252;10.390;2022-08-23T10:31:01;24.20;98.60
10885;DHT22;5495;53.252;10.390;2022-08-23T10:33:39;24.30;98.70
10885;DHT22;5495;53.252;10.390;2022-08-23T10:36:14;24.30;98.60
10885;DHT22;5495;53.252;10.390;2022-08-23T10:38:45;24.40;98.20
10885;DHT22;5495;53.252;10.390;2022-08-23T10:41:37;24.40;98.30
10885;DHT22;5495;53.252;10.390;2022-08-23T10:44:21;24.50;98.50
10885;DHT22;5495;53.252;10.390;2022-08-23T10:46:58;24.50;98.30
10885;DHT22;5495;53.252;10.390;2022-08-23T10:49:28;24.60;97.20
10885;DHT22;5495;53.252;10.390;2022-08-23T10:51:57;24.70;96.60
10885;DHT22;5495;53.252;10.390;2022-08-23T10:54:31;24.70;96.90
10885;DHT22;5495;53.252;10.390;2022-08-23T10:57:12;24.80;96.90
10885;DHT22;5495;53.252;10.390;2022-08-23T10:59:42;24.90;98.00
10885;DHT22;5495;53.252;10.390;2022-08-23T11:02:19;25.10;96.80
10885;DHT22;5495;53.252;10.390;2022-08-23T11:04:53;25.10;97.00
10885;DHT22;5495;53.252;10.390;2022-08-23T11:07:27;25.20;97.10
10885;DHT22;5495;53.252;10.390;2022-08-23T11:10:06;25.30;97.90
10885;DHT22;5495;53.252;10.390;2022-08-23T11:12:36;25.30;97.00
10885;DHT22;5495;53.252;10.390;2022-08-23T11:15:31;25.30;96.30
10885;DHT22;5495;53.252;10.390;2022-08-23T11:18:06;25.30;96.00
10885;DHT22;5495;53.252;10.390;2022-08-23T11:21:05;25.40;96.70
10885;DHT22;5495;53.252;10.390;2022-08-23T11:23:46;25.60;96.00
10885;DHT22;5495;53.252;10.390;2022-08-23T11:29:30;25.60;96.50
10885;DHT22;5495;53.252;10.390;2022-08-23T11:32:20;25.60;95.10
10885;DHT22;5495;53.252;10.390;2022-08-23T11:34:53;25.60;94.50
10885;DHT22;5495;53.252;10.390;2022-08-23T11:37:28;25.70;95.10
10885;DHT22;5495;53.252;10.390;2022-08-23T11:40:09;25.60;95.40
10885;DHT22;5495;53.252;10.390;2022-08-23T11:42:50;25.70;95.50
10885;DHT22;5495;53.252;10.390;2022-08-23T11:45:24;25.70;96.40
10885;DHT22;5495;53.252;10.390;2022-08-23T11:48:10;25.80;95.40
10885;DHT22;5495;53.252;10.390;2022-08-23T11:53:53;25.90;94.70
10885;DHT22;5495;53.252;10.390;2022-08-23T11:56:37;26.00;94.40
10885;DHT22;5495;53.252;10.390;2022-08-23T11:59:26;26.10;93.60
10885;DHT22;5495;53.252;10.390;2022-08-23T12:02:31;26.10;93.30
10885;DHT22;5495;53.252;10.390;2022-08-23T12:05:01;26.10;93.50
10885;DHT22;5495;53.252;10.390;2022-08-23T12:07:50;26.10;94.00
10885;DHT22;5495;53.252;10.390;2022-08-23T12:10:28;26.10;94.00
10885;DHT22;5495;53.252;10.390;2022-08-23T12:13:49;26.20;94.20
10885;DHT22;5495;53.252;10.390;2022-08-23T12:16:34;26.20;94.40
10885;DHT22;5495;53.252;10.390;2022-08-23T12:19:05;26.30;93.90
10885;DHT22;5495;53.252;10.390;2022-08-23T12:21:46;26.30;93.40
10885;DHT22;5495;53.252;10.390;2022-08-23T12:24:21;26.30;93.50
10885;DHT22;5495;53.252;10.390;2022-08-23T12:26:55;26.30;94.00
10885;DHT22;5495;53.252;10.390;2022-08-23T12:29:32;26.40;93.50
10885;DHT22;5495;53.252;10.390;2022-08-23T12:32:08;26.50;93.90
10885;DHT22;5495;53.252;10.390;2022-08-23T12:34:49;26.50;93.90
10885;DHT22;5495;53.252;10.390;2022-08-23T12:37:24;26.50;93.50
10885;DHT22;5495;53.252;10.390;2022-08-23T12:39:58;26.50;94.10
10885;DHT22;5495;53.252;10.390;2022-08-23T12:42:28;26.50;93.30
10885;DHT22;5495;53.252;10.390;2022-08-23T12:45:03;26.50;93.30
10885;DHT22;5495;53.252;10.390;2022-08-23T12:47:32;26.70;94.60
10885;DHT22;5495;53.252;10.390;2022-08-23T12:50:02;26.70;92.70
10885;DHT22;5495;53.252;10.390;2022-08-23T12:52:33;26.70;93.30
10885;DHT22;5495;53.252;10.390;2022-08-23T12:55:02;26.70;93.00
10885;DHT22;5495;53.252;10.390;2022-08-23T12:57:42;26.70;93.60
10885;DHT22;5495;53.252;10.390;2022-08-23T13:00:18;26.70;93.10
10885;DHT22;5495;53.252;10.390;2022-08-23T13:02:54;26.70;92.80
10885;DHT22;5495;53.252;10.390;2022-08-23T13:05:32;26.70;93.30
10885;DHT22;5495;53.252;10.390;2022-08-23T13:08:04;26.70;92.60
10885;DHT22;5495;53.252;10.390;2022-08-23T13:10:35;26.70;93.50
10885;DHT22;5495;53.252;10.390;2022-08-23T13:13:04;26.70;92.70
10885;DHT22;5495;53.252;10.390;2022-08-23T13:15:48;26.80;91.80
10885;DHT22;5495;53.252;10.390;2022-08-23T13:18:28;26.90;92.30
10885;DHT22;5495;53.252;10.390;2022-08-23T13:21:16;26.80;92.60
10885;DHT22;5495;53.252;10.390;2022-08-23T13:23:44;26.80;92.40
10885;DHT22;5495;53.252;10.390;2022-08-23T13:26:36;26.80;92.30
10885;DHT22;5495;53.252;10.390;2022-08-23T13:29:07;26.80;93.00
10885;DHT22;5495;53.252;10.390;2022-08-23T13:31:52;26.90;93.00
10885;DHT22;5495;53.252;10.390;2022-08-23T13:34:38;26.90;92.90
10885;DHT22;5495;53.252;10.390;2022-08-23T13:37:18;26.90;93.20
10885;DHT22;5495;53.252;10.390;2022-08-23T13:39:48;26.90;93.20
10885;DHT22;5495;53.252;10.390;2022-08-23T13:42:34;27.00;93.30
10885;DHT22;5495;53.252;10.390;2022-08-23T13:45:12;27.00;93.40
10885;DHT22;5495;53.252;10.390;2022-08-23T13:47:45;27.00;92.80
10885;DHT22;5495;53.252;10.390;2022-08-23T13:50:15;27.10;92.90
10885;DHT22;5495;53.252;10.390;2022-08-23T13:52:44;27.10;93.10
10885;DHT22;5495;53.252;10.390;2022-08-23T13:55:11;27.20;93.00
10885;DHT22;5495;53.252;10.390;2022-08-23T13:57:41;27.20;93.20
10885;DHT22;5495;53.252;10.390;2022-08-23T14:00:10;27.20;93.50
10885;DHT22;5495;53.252;10.390;2022-08-23T14:02:38;27.20;92.90
10885;DHT22;5495;53.252;10.390;2022-08-23T14:05:07;27.20;92.40
10885;DHT22;5495;53.252;10.390;2022-08-23T14:07:36;27.30;92.90
10885;DHT22;5495;53.252;10.390;2022-08-23T14:10:04;27.30;92.00
10885;DHT22;5495;53.252;10.390;2022-08-23T14:12:33;27.30;92.70
10885;DHT22;5495;53.252;10.390;2022-08-23T14:15:04;27.30;92.00
10885;DHT22;5495;53.252;10.390;2022-08-23T14:17:37;27.40;92.50
10885;DHT22;5495;53.252;10.390;2022-08-23T14:20:07;27.40;92.60
10885;DHT22;5495;53.252;10.390;2022-08-23T14:22:36;27.30;92.30
10885;DHT22;5495;53.252;10.390;2022-08-23T14:25:04;27.30;92.00
10885;DHT22;5495;53.252;10.390;2022-08-23T14:27:32;27.40;92.00
10885;DHT22;5495;53.252;10.390;2022-08-23T14:30:01;27.50;91.60
10885;DHT22;5495;53.252;10.390;2022-08-23T14:32:32;27.50;91.20
10885;DHT22;5495;53.252;10.390;2022-08-23T14:34:59;27.40;91.30
10885;DHT22;5495;53.252;10.390;2022-08-23T14:37:27;27.30;91.30
10885;DHT22;5495;53.252;10.390;2022-08-23T14:39:54;27.30;92.00
10885;DHT22;5495;53.252;10.390;2022-08-23T14:42:23;27.30;91.70
10885;DHT22;5495;53.252;10.390;2022-08-23T14:44:50;27.20;91.40
10885;DHT22;5495;53.252;10.390;2022-08-23T14:47:18;27.20;91.30
10885;DHT22;5495;53.252;10.390;2022-08-23T14:49:47;27.00;91.90
10885;DHT22;5495;53.252;10.390;2022-08-23T14:52:14;27.00;92.10
10885;DHT22;5495;53.252;10.390;2022-08-23T14:54:42;27.00;91.80
10885;DHT22;5495;53.252;10.390;2022-08-23T14:57:10;27.10;91.40
10885;DHT22;5495;53.252;10.390;2022-08-23T14:59:38;27.10;91.30
10885;DHT22;5495;53.252;10.390;2022-08-23T15:02:07;27.20;91.70
10885;DHT22;5495;53.252;10.390;2022-08-23T15:04:38;27.30;91.80
10885;DHT22;5495;53.252;10.390;2022-08-23T15:07:08;27.20;92.00
10885;DHT22;5495;53.252;10.390;2022-08-23T15:09:35;27.10;92.70
10885;DHT22;5495;53.252;10.390;2022-08-23T15:12:03;27.20;91.20
10885;DHT22;5495;53.252;10.390;2022-08-23T15:14:31;27.00;91.80
10885;DHT22;5495;53.252;10.390;2022-08-23T15:16:59;26.90;91.40
10885;DHT22;5495;53.252;10.390;2022-08-23T15:19:28;26.80;91.40
10885;DHT22;5495;53.252;10.390;2022-08-23T15:21:59;26.80;92.30
10885;DHT22;5495;53.252;10.390;2022-08-23T15:24:28;26.70;92.40
10885;DHT22;5495;53.252;10.390;2022-08-23T15:26:56;26.70;92.40
10885;DHT22;5495;53.252;10.390;2022-08-23T15:29:25;26.80;92.50
10885;DHT22;5495;53.252;10.390;2022-08-23T15:31:53;26.80;92.50
10885;DHT22;5495;53.252;10.390;2022-08-23T15:34:20;26.70;92.90
10885;DHT22;5495;53.252;10.390;2022-08-23T15:36:48;26.60;92.70
10885;DHT22;5495;53.252;10.390;2022-08-23T15:39:17;26.50;92.70
10885;DHT22;5495;53.252;10.390;2022-08-23T15:41:46;26.50;93.00
10885;DHT22;5495;53.252;10.390;2022-08-23T15:44:13;26.50;92.30
10885;DHT22;5495;53.252;10.390;2022-08-23T15:46:45;26.40;92.70
10885;DHT22;5495;53.252;10.390;2022-08-23T15:49:15;26.40;93.30
10885;DHT22;5495;53.252;10.390;2022-08-23T15:51:44;26.30;93.10
10885;DHT22;5495;53.252;10.390;2022-08-23T15:54:12;26.20;93.10
10885;DHT22;5495;53.252;10.390;2022-08-23T15:56:42;26.10;93.00
10885;DHT22;5495;53.252;10.390;2022-08-23T15:59:14;26.20;93.00
10885;DHT22;5495;53.252;10.390;2022-08-23T16:01:44;26.00;93.00
10885;DHT22;5495;53.252;10.390;2022-08-23T16:04:12;26.00;93.90